sensor_id;sensor_type;location;lat;lon;timestamp;P1;durP1;ratioP1;P2;durP2;ratioP2
27999;SDS011;15328;50.860;10.562;2023-05-15T00:02:48;5.70;;;5.10;;
27999;SDS011;15328;50.860;10.562;2023-05-15T00:07:48;6.87;;;5.63;;
27999;SDS011;15328;50.860;10.562;2023-05-15T00:12:49;6.07;;;5.35;;
27999;SDS011;15328;50.860;10.562;2023-05-15T00:17:49;6.57;;;5.20;;
27999;SDS011;15328;50.860;10.562;2023-05-15T00:22:49;6.10;;;5.27;;
27999;SDS011;15328;50.860;10.562;2023-05-15T00:27:50;5.20;;;4.70;;
27999;SDS011;15328;50.860;10.562;2023-05-15T00:32:50;5.20;;;4.60;;
27999;SDS011;15328;50.860;10.562;2023-05-15T00:37:50;5.90;;;5.30;;
27999;SDS011;15328;50.860;10.562;2023-05-15T00:42:51;5.80;;;5.20;;
27999;SDS011;15328;50.860;10.562;2023-05-15T00:47:53;4.72;;;4.32;;
27999;SDS011;15328;50.860;10.562;2023-05-15T00:52:54;6.45;;;4.90;;
27999;SDS011;15328;50.860;10.562;2023-05-15T00:57:55;5.25;;;4.75;;
27999;SDS011;15328;50.860;10.562;2023-05-15T01:02:56;4.88;;;4.38;;
27999;SDS011;15328;50.860;10.562;2023-05-15T01:08:02;6.82;;;5.10;;
27999;SDS011;15328;50.860;10.562;2023-05-15T01:13:05;6.30;;;4.65;;
27999;SDS011;15328;50.860;10.562;2023-05-15T01:18:08;5.15;;;4.55;;
27999;SDS011;15328;50.860;10.562;2023-05-15T01:23:09;7.07;;;4.90;;
27999;SDS011;15328;50.860;10.562;2023-05-15T01:28:17;5.93;;;5.15;;
27999;SDS011;15328;50.860;10.562;2023-05-15T01:33:23;6.43;;;5.03;;
27999;SDS011;15328;50.860;10.562;2023-05-15T01:43:34;5.72;;;5.07;;
27999;SDS011;15328;50.860;10.562;2023-05-15T01:48:39;6.18;;;5.35;;
27999;SDS011;15328;50.860;10.562;2023-05-15T01:53:42;5.38;;;4.45;;
27999;SDS011;15328;50.860;10.562;2023-05-15T01:58:44;5.75;;;4.50;;
27999;SDS011;15328;50.860;10.562;2023-05-15T02:03:47;5.00;;;4.45;;
27999;SDS011;15328;50.860;10.562;2023-05-15T02:08:48;7.43;;;4.35;;
27999;SDS011;15328;50.860;10.562;2023-05-15T02:13:50;5.53;;;4.40;;
27999;SDS011;15328;50.860;10.562;2023-05-15T02:18:51;5.03;;;4.53;;
27999;SDS011;15328;50.860;10.562;2023-05-15T02:23:52;5.60;;;4.85;;
27999;SDS011;15328;50.860;10.562;2023-05-15T02:28:56;6.47;;;4.70;;
27999;SDS011;15328;50.860;10.562;2023-05-15T02:39:17;5.07;;;4.30;;
27999;SDS011;15328;50.860;10.562;2023-05-15T02:44:22;6.95;;;4.50;;
27999;SDS011;15328;50.860;10.562;2023-05-15T02:49:23;6.15;;;4.40;;
27999;SDS011;15328;50.860;10.562;2023-05-15T02:54:24;5.32;;;4.22;;
27999;SDS011;15328;50.860;10.562;2023-05-15T02:59:25;5.17;;;4.37;;
27999;SDS011;15328;50.860;10.562;2023-05-15T03:04:25;5.53;;;4.37;;
27999;SDS011;15328;50.860;10.562;2023-05-15T03:09:25;4.70;;;4.20;;
27999;SDS011;15328;50.860;10.562;2023-05-15T03:14:26;4.83;;;4.20;;
27999;SDS011;15328;50.860;10.562;2023-05-15T03:19:26;5.15;;;4.32;;
27999;SDS011;15328;50.860;10.562;2023-05-15T03:24:26;4.63;;;4.17;;
27999;SDS011;15328;50.860;10.562;2023-05-15T03:29:27;6.10;;;4.20;;
27999;SDS011;15328;50.860;10.562;2023-05-15T03:34:27;5.53;;;4.57;;
27999;SDS011;15328;50.860;10.562;2023-05-15T03:39:27;5.80;;;4.67;;
27999;SDS011;15328;50.860;10.562;2023-05-15T03:44:28;5.97;;;4.97;;
27999;SDS011;15328;50.860;10.562;2023-05-15T03:49:28;6.68;;;5.25;;
27999;SDS011;15328;50.860;10.562;2023-05-15T03:54:29;5.15;;;4.65;;
27999;SDS011;15328;50.860;10.562;2023-05-15T03:59:29;5.03;;;4.50;;
27999;SDS011;15328;50.860;10.562;2023-05-15T04:04:30;6.78;;;5.10;;
27999;SDS011;15328;50.860;10.562;2023-05-15T04:09:30;5.95;;;4.97;;
27999;SDS011;15328;50.860;10.562;2023-05-15T04:14:30;5.43;;;4.53;;
27999;SDS011;15328;50.860;10.562;2023-05-15T04:19:31;5.40;;;4.40;;
27999;SDS011;15328;50.860;10.562;2023-05-15T04:24:31;5.82;;;4.68;;
27999;SDS011;15328;50.860;10.562;2023-05-15T04:29:32;6.00;;;4.97;;
27999;SDS011;15328;50.860;10.562;2023-05-15T04:34:32;8.50;;;5.23;;
27999;SDS011;15328;50.860;10.562;2023-05-15T04:39:32;5.23;;;4.67;;
27999;SDS011;15328;50.860;10.562;2023-05-15T04:44:33;7.23;;;4.90;;
27999;SDS011;15328;50.860;10.562;2023-05-15T04:49:33;5.65;;;4.53;;
27999;SDS011;15328;50.860;10.562;2023-05-15T04:54:33;5.50;;;4.70;;
27999;SDS011;15328;50.860;10.562;2023-05-15T04:59:34;5.73;;;4.70;;
27999;SDS011;15328;50.860;10.562;2023-05-15T05:04:34;6.07;;;4.50;;
27999;SDS011;15328;50.860;10.562;2023-05-15T05:09:34;6.07;;;4.73;;
27999;SDS011;15328;50.860;10.562;2023-05-15T05:14:35;6.47;;;5.13;;
27999;SDS011;15328;50.860;10.562;2023-05-15T05:19:36;5.53;;;4.60;;
27999;SDS011;15328;50.860;10.562;2023-05-15T05:24:36;5.70;;;4.78;;
27999;SDS011;15328;50.860;10.562;2023-05-15T05:29:37;6.05;;;5.22;;
27999;SDS011;15328;50.860;10.562;2023-05-15T05:34:38;5.43;;;4.75;;
27999;SDS011;15328;50.860;10.562;2023-05-15T05:39:39;5.63;;;5.03;;
27999;SDS011;15328;50.860;10.562;2023-05-15T05:44:39;5.27;;;4.60;;
27999;SDS011;15328;50.860;10.562;2023-05-15T05:49:39;5.90;;;5.10;;
27999;SDS011;15328;50.860;10.562;2023-05-15T05:54:40;5.45;;;4.80;;
27999;SDS011;15328;50.860;10.562;2023-05-15T05:59:41;5.00;;;4.30;;
27999;SDS011;15328;50.860;10.562;2023-05-15T06:04:42;4.13;;;3.72;;
27999;SDS011;15328;50.860;10.562;2023-05-15T06:09:42;4.93;;;4.43;;
27999;SDS011;15328;50.860;10.562;2023-05-15T06:14:44;4.88;;;4.28;;
27999;SDS011;15328;50.860;10.562;2023-05-15T06:19:45;4.72;;;4.00;;
27999;SDS011;15328;50.860;10.562;2023-05-15T06:24:45;5.30;;;4.22;;
27999;SDS011;15328;50.860;10.562;2023-05-15T06:29:45;5.97;;;4.40;;
27999;SDS011;15328;50.860;10.562;2023-05-15T06:34:46;4.53;;;4.10;;
27999;SDS011;15328;50.860;10.562;2023-05-15T06:39:46;5.00;;;3.67;;
27999;SDS011;15328;50.860;10.562;2023-05-15T06:44:46;4.37;;;3.90;;
27999;SDS011;15328;50.860;10.562;2023-05-15T06:49:48;4.30;;;3.90;;
27999;SDS011;15328;50.860;10.562;2023-05-15T06:54:48;4.23;;;3.83;;
27999;SDS011;15328;50.860;10.562;2023-05-15T06:59:49;4.72;;;3.80;;
27999;SDS011;15328;50.860;10.562;2023-05-15T07:04:49;6.05;;;4.30;;
27999;SDS011;15328;50.860;10.562;2023-05-15T07:09:50;6.28;;;4.47;;
27999;SDS011;15328;50.860;10.562;2023-05-15T07:14:50;6.50;;;4.50;;
27999;SDS011;15328;50.860;10.562;2023-05-15T07:19:51;5.17;;;4.20;;
27999;SDS011;15328;50.860;10.562;2023-05-15T07:24:51;6.03;;;4.25;;
27999;SDS011;15328;50.860;10.562;2023-05-15T07:29:52;6.72;;;4.80;;
27999;SDS011;15328;50.860;10.562;2023-05-15T07:34:52;5.38;;;3.92;;
27999;SDS011;15328;50.860;10.562;2023-05-15T07:39:53;4.57;;;3.80;;
27999;SDS011;15328;50.860;10.562;2023-05-15T07:44:55;6.07;;;3.90;;
27999;SDS011;15328;50.860;10.562;2023-05-15T07:49:55;6.03;;;3.88;;
27999;SDS011;15328;50.860;10.562;2023-05-15T07:54:55;5.15;;;4.20;;
27999;SDS011;15328;50.860;10.562;2023-05-15T07:59:56;5.60;;;3.90;;
27999;SDS011;15328;50.860;10.562;2023-05-15T08:04:57;7.20;;;4.13;;
27999;SDS011;15328;50.860;10.562;2023-05-15T08:09:57;5.33;;;3.70;;
27999;SDS011;15328;50.860;10.562;2023-05-15T08:14:57;5.22;;;3.90;;
27999;SDS011;15328;50.860;10.562;2023-05-15T08:19:58;4.68;;;3.60;;
27999;SDS011;15328;50.860;10.562;2023-05-15T08:24:58;5.40;;;3.63;;
27999;SDS011;15328;50.860;10.562;2023-05-15T08:29:59;4.93;;;3.42;;
27999;SDS011;15328;50.860;10.562;2023-05-15T08:35:00;3.87;;;3.37;;
27999;SDS011;15328;50.860;10.562;2023-05-15T08:40:00;4.22;;;3.17;;
27999;SDS011;15328;50.860;10.562;2023-05-15T08:45:01;4.83;;;3.10;;
27999;SDS011;15328;50.860;10.562;2023-05-15T08:50:05;4.30;;;3.10;;
27999;SDS011;15328;50.860;10.562;2023-05-15T08:55:07;4.38;;;2.95;;
27999;SDS011;15328;50.860;10.562;2023-05-15T09:00:08;3.55;;;2.70;;
27999;SDS011;15328;50.860;10.562;2023-05-15T09:05:13;3.90;;;2.95;;
27999;SDS011;15328;50.860;10.562;2023-05-15T09:10:13;5.00;;;2.93;;
27999;SDS011;15328;50.860;10.562;2023-05-15T09:15:15;4.72;;;3.05;;
27999;SDS011;15328;50.860;10.562;2023-05-15T09:20:24;4.45;;;2.88;;
27999;SDS011;15328;50.860;10.562;2023-05-15T09:25:32;4.53;;;2.75;;
27999;SDS011;15328;50.860;10.562;2023-05-15T09:30:38;5.90;;;3.15;;
27999;SDS011;15328;50.860;10.562;2023-05-15T09:35:41;5.93;;;3.25;;
27999;SDS011;15328;50.860;10.562;2023-05-15T09:40:41;4.80;;;3.42;;
27999;SDS011;15328;50.860;10.562;2023-05-15T09:45:42;5.17;;;3.70;;
27999;SDS011;15328;50.860;10.562;2023-05-15T09:50:42;4.10;;;3.27;;
27999;SDS011;15328;50.860;10.562;2023-05-15T09:55:42;4.47;;;3.37;;
27999;SDS011;15328;50.860;10.562;2023-05-15T10:00:44;4.28;;;3.13;;
27999;SDS011;15328;50.860;10.562;2023-05-15T10:05:45;5.03;;;3.67;;
27999;SDS011;15328;50.860;10.562;2023-05-15T10:10:46;4.43;;;3.42;;
27999;SDS011;15328;50.860;10.562;2023-05-15T10:15:47;3.80;;;2.80;;
27999;SDS011;15328;50.860;10.562;2023-05-15T10:20:49;4.82;;;3.40;;
27999;SDS011;15328;50.860;10.562;2023-05-15T10:25:54;3.60;;;2.85;;
27999;SDS011;15328;50.860;10.562;2023-05-15T10:30:59;5.72;;;3.13;;
27999;SDS011;15328;50.860;10.562;2023-05-15T10:36:00;4.60;;;3.03;;
27999;SDS011;15328;50.860;10.562;2023-05-15T10:41:02;4.22;;;3.20;;
27999;SDS011;15328;50.860;10.562;2023-05-15T10:46:04;5.50;;;3.20;;
27999;SDS011;15328;50.860;10.562;2023-05-15T10:51:13;5.47;;;3.40;;
27999;SDS011;15328;50.860;10.562;2023-05-15T10:56:30;5.30;;;3.70;;
27999;SDS011;15328;50.860;10.562;2023-05-15T11:01:31;4.80;;;3.30;;
27999;SDS011;15328;50.860;10.562;2023-05-15T11:06:34;4.10;;;2.90;;
27999;SDS011;15328;50.860;10.562;2023-05-15T11:21:58;5.13;;;3.00;;
27999;SDS011;15328;50.860;10.562;2023-05-15T11:27:03;5.70;;;3.37;;
27999;SDS011;15328;50.860;10.562;2023-05-15T11:32:06;5.15;;;3.50;;
27999;SDS011;15328;50.860;10.562;2023-05-15T11:37:30;5.50;;;3.65;;
27999;SDS011;15328;50.860;10.562;2023-05-15T11:42:31;3.97;;;3.05;;
27999;SDS011;15328;50.860;10.562;2023-05-15T11:47:31;5.18;;;3.10;;
27999;SDS011;15328;50.860;10.562;2023-05-15T11:52:31;5.17;;;3.30;;
27999;SDS011;15328;50.860;10.562;2023-05-15T11:57:32;4.78;;;3.30;;
27999;SDS011;15328;50.860;10.562;2023-05-15T12:02:32;5.07;;;3.20;;
27999;SDS011;15328;50.860;10.562;2023-05-15T12:07:51;6.83;;;3.30;;
27999;SDS011;15328;50.860;10.562;2023-05-15T12:12:51;5.20;;;3.70;;
27999;SDS011;15328;50.860;10.562;2023-05-15T12:17:52;5.50;;;3.60;;
27999;SDS011;15328;50.860;10.562;2023-05-15T12:22:52;3.13;;;2.70;;
27999;SDS011;15328;50.860;10.562;2023-05-15T12:27:52;3.77;;;2.83;;
27999;SDS011;15328;50.860;10.562;2023-05-15T12:32:53;5.50;;;3.17;;
27999;SDS011;15328;50.860;10.562;2023-05-15T12:37:53;6.30;;;3.80;;
27999;SDS011;15328;50.860;10.562;2023-05-15T12:42:54;5.95;;;3.25;;
27999;SDS011;15328;50.860;10.562;2023-05-15T12:47:55;4.20;;;3.28;;
27999;SDS011;15328;50.860;10.562;2023-05-15T12:52:57;4.72;;;3.30;;
27999;SDS011;15328;50.860;10.562;2023-05-15T12:58:03;4.28;;;3.20;;
27999;SDS011;15328;50.860;10.562;2023-05-15T13:03:10;6.63;;;3.85;;
27999;SDS011;15328;50.860;10.562;2023-05-15T13:08:14;4.43;;;3.10;;
27999;SDS011;15328;50.860;10.562;2023-05-15T13:13:16;5.82;;;3.28;;
27999;SDS011;15328;50.860;10.562;2023-05-15T13:18:16;5.13;;;3.63;;
27999;SDS011;15328;50.860;10.562;2023-05-15T13:23:18;4.60;;;2.95;;
27999;SDS011;15328;50.860;10.562;2023-05-15T13:28:19;6.30;;;3.47;;
27999;SDS011;15328;50.860;10.562;2023-05-15T13:33:20;6.37;;;3.00;;
27999;SDS011;15328;50.860;10.562;2023-05-15T13:38:20;3.40;;;2.87;;
27999;SDS011;15328;50.860;10.562;2023-05-15T13:43:20;5.37;;;3.10;;
27999;SDS011;15328;50.860;10.562;2023-05-15T13:48:21;5.13;;;3.03;;
27999;SDS011;15328;50.860;10.562;2023-05-15T13:53:21;4.35;;;2.83;;
27999;SDS011;15328;50.860;10.562;2023-05-15T13:58:22;4.47;;;2.93;;
27999;SDS011;15328;50.860;10.562;2023-05-15T14:03:25;5.13;;;3.33;;
27999;SDS011;15328;50.860;10.562;2023-05-15T14:08:25;6.60;;;3.20;;
27999;SDS011;15328;50.860;10.562;2023-05-15T14:13:26;3.87;;;3.10;;
27999;SDS011;15328;50.860;10.562;2023-05-15T14:18:26;3.73;;;3.00;;
27999;SDS011;15328;50.860;10.562;2023-05-15T14:23:26;4.70;;;3.30;;
27999;SDS011;15328;50.860;10.562;2023-05-15T14:28:27;5.22;;;3.33;;
27999;SDS011;15328;50.860;10.562;2023-05-15T14:33:27;5.87;;;3.50;;
27999;SDS011;15328;50.860;10.562;2023-05-15T14:38:27;3.40;;;2.70;;
27999;SDS011;15328;50.860;10.562;2023-05-15T14:43:28;3.55;;;3.08;;
27999;SDS011;15328;50.860;10.562;2023-05-15T14:48:28;7.25;;;3.10;;
27999;SDS011;15328;50.860;10.562;2023-05-15T14:53:29;3.75;;;3.00;;
27999;SDS011;15328;50.860;10.562;2023-05-15T14:58:29;4.90;;;3.17;;
27999;SDS011;15328;50.860;10.562;2023-05-15T15:03:30;3.30;;;2.92;;
27999;SDS011;15328;50.860;10.562;2023-05-15T15:08:31;4.60;;;3.00;;
27999;SDS011;15328;50.860;10.562;2023-05-15T15:13:31;4.40;;;3.47;;
27999;SDS011;15328;50.860;10.562;2023-05-15T15:18:32;4.53;;;2.92;;
27999;SDS011;15328;50.860;10.562;2023-05-15T15:23:32;5.50;;;4.30;;
27999;SDS011;15328;50.860;10.562;2023-05-15T15:28:32;5.67;;;3.47;;
27999;SDS011;15328;50.860;10.562;2023-05-15T15:33:33;3.90;;;3.20;;
27999;SDS011;15328;50.860;10.562;2023-05-15T15:38:33;4.10;;;3.27;;
27999;SDS011;15328;50.860;10.562;2023-05-15T15:43:33;7.13;;;3.53;;
27999;SDS011;15328;50.860;10.562;2023-05-15T15:48:34;3.93;;;3.30;;
27999;SDS011;15328;50.860;10.562;2023-05-15T15:53:35;11.10;;;3.30;;
27999;SDS011;15328;50.860;10.562;2023-05-15T15:58:36;3.70;;;3.28;;
27999;SDS011;15328;50.860;10.562;2023-05-15T16:03:36;5.57;;;3.50;;
27999;SDS011;15328;50.860;10.562;2023-05-15T16:08:38;5.72;;;3.55;;
27999;SDS011;15328;50.860;10.562;2023-05-15T16:13:38;4.50;;;3.70;;
27999;SDS011;15328;50.860;10.562;2023-05-15T16:18:39;5.95;;;3.40;;
27999;SDS011;15328;50.860;10.562;2023-05-15T16:23:39;5.28;;;2.88;;
27999;SDS011;15328;50.860;10.562;2023-05-15T16:28:40;5.63;;;2.95;;
27999;SDS011;15328;50.860;10.562;2023-05-15T16:33:40;5.47;;;3.90;;
27999;SDS011;15328;50.860;10.562;2023-05-15T16:38:41;5.30;;;3.53;;
27999;SDS011;15328;50.860;10.562;2023-05-15T16:43:41;4.82;;;3.45;;
27999;SDS011;15328;50.860;10.562;2023-05-15T16:48:42;3.67;;;2.97;;
27999;SDS011;15328;50.860;10.562;2023-05-15T16:53:43;3.13;;;2.83;;
27999;SDS011;15328;50.860;10.562;2023-05-15T16:58:44;3.33;;;2.97;;
27999;SDS011;15328;50.860;10.562;2023-05-15T17:03:44;3.13;;;2.42;;
27999;SDS011;15328;50.860;10.562;2023-05-15T17:08:45;3.60;;;2.67;;
27999;SDS011;15328;50.860;10.562;2023-05-15T17:13:45;5.68;;;2.60;;
27999;SDS011;15328;50.860;10.562;2023-05-15T17:18:46;2.78;;;2.40;;
27999;SDS011;15328;50.860;10.562;2023-05-15T17:23:46;3.93;;;2.80;;
27999;SDS011;15328;50.860;10.562;2023-05-15T17:28:47;3.47;;;2.80;;
27999;SDS011;15328;50.860;10.562;2023-05-15T17:33:47;3.53;;;2.93;;
27999;SDS011;15328;50.860;10.562;2023-05-15T17:38:47;2.67;;;2.40;;
27999;SDS011;15328;50.860;10.562;2023-05-15T17:43:48;3.50;;;2.83;;
27999;SDS011;15328;50.860;10.562;2023-05-15T17:48:48;3.30;;;3.00;;
27999;SDS011;15328;50.860;10.562;2023-05-15T17:53:49;4.87;;;2.50;;
27999;SDS011;15328;50.860;10.562;2023-05-15T17:58:49;4.40;;;3.10;;
27999;SDS011;15328;50.860;10.562;2023-05-15T18:03:50;3.63;;;2.97;;
27999;SDS011;15328;50.860;10.562;2023-05-15T18:08:50;3.87;;;2.60;;
27999;SDS011;15328;50.860;10.562;2023-05-15T18:13:50;3.60;;;2.93;;
27999;SDS011;15328;50.860;10.562;2023-05-15T18:18:51;4.57;;;2.97;;
27999;SDS011;15328;50.860;10.562;2023-05-15T18:23:51;4.07;;;2.83;;
27999;SDS011;15328;50.860;10.562;2023-05-15T18:28:52;4.27;;;3.27;;
27999;SDS011;15328;50.860;10.562;2023-05-15T18:33:52;3.33;;;2.60;;
27999;SDS011;15328;50.860;10.562;2023-05-15T18:38:52;5.50;;;3.07;;
27999;SDS011;15328;50.860;10.562;2023-05-15T18:43:53;3.63;;;3.10;;
27999;SDS011;15328;50.860;10.562;2023-05-15T18:48:53;4.07;;;2.83;;
27999;SDS011;15328;50.860;10.562;2023-05-15T18:53:53;3.10;;;2.70;;
27999;SDS011;15328;50.860;10.562;2023-05-15T18:58:54;3.10;;;2.40;;
27999;SDS011;15328;50.860;10.562;2023-05-15T19:03:54;2.75;;;2.15;;
27999;SDS011;15328;50.860;10.562;2023-05-15T19:08:54;3.13;;;2.60;;
27999;SDS011;15328;50.860;10.562;2023-05-15T19:13:55;3.72;;;2.80;;
27999;SDS011;15328;50.860;10.562;2023-05-15T19:18:55;3.45;;;2.67;;
27999;SDS011;15328;50.860;10.562;2023-05-15T19:23:55;4.90;;;3.00;;
27999;SDS011;15328;50.860;10.562;2023-05-15T19:28:56;4.88;;;3.10;;
27999;SDS011;15328;50.860;10.562;2023-05-15T19:33:57;5.30;;;3.60;;
27999;SDS011;15328;50.860;10.562;2023-05-15T19:38:57;3.47;;;2.90;;
27999;SDS011;15328;50.860;10.562;2023-05-15T19:43:58;3.40;;;2.90;;
27999;SDS011;15328;50.860;10.562;2023-05-15T19:48:58;3.50;;;2.90;;
27999;SDS011;15328;50.860;10.562;2023-05-15T19:53:58;4.43;;;3.00;;
27999;SDS011;15328;50.860;10.562;2023-05-15T19:59:01;3.42;;;3.08;;
27999;SDS011;15328;50.860;10.562;2023-05-15T20:04:01;3.28;;;2.70;;
27999;SDS011;15328;50.860;10.562;2023-05-15T20:09:01;3.73;;;2.77;;
27999;SDS011;15328;50.860;10.562;2023-05-15T20:14:02;3.50;;;2.78;;
27999;SDS011;15328;50.860;10.562;2023-05-15T20:19:02;2.80;;;2.43;;
27999;SDS011;15328;50.860;10.562;2023-05-15T20:24:03;3.08;;;2.63;;
27999;SDS011;15328;50.860;10.562;2023-05-15T20:29:03;3.40;;;2.90;;
27999;SDS011;15328;50.860;10.562;2023-05-15T20:34:04;3.17;;;2.63;;
27999;SDS011;15328;50.860;10.562;2023-05-15T20:39:06;3.30;;;2.88;;
27999;SDS011;15328;50.860;10.562;2023-05-15T20:44:07;3.90;;;3.00;;
27999;SDS011;15328;50.860;10.562;2023-05-15T20:49:08;3.95;;;2.97;;
27999;SDS011;15328;50.860;10.562;2023-05-15T20:54:08;3.40;;;2.90;;
27999;SDS011;15328;50.860;10.562;2023-05-15T20:59:09;4.00;;;3.50;;
27999;SDS011;15328;50.860;10.562;2023-05-15T21:04:09;4.88;;;3.92;;
27999;SDS011;15328;50.860;10.562;2023-05-15T21:09:11;4.93;;;3.67;;
27999;SDS011;15328;50.860;10.562;2023-05-15T21:14:12;5.95;;;4.25;;
27999;SDS011;15328;50.860;10.562;2023-05-15T21:19:13;5.55;;;4.40;;
27999;SDS011;15328;50.860;10.562;2023-05-15T21:24:13;4.87;;;4.17;;
27999;SDS011;15328;50.860;10.562;2023-05-15T21:29:14;5.97;;;4.80;;
27999;SDS011;15328;50.860;10.562;2023-05-15T21:34:14;4.90;;;4.32;;
27999;SDS011;15328;50.860;10.562;2023-05-15T21:39:14;6.55;;;4.68;;
27999;SDS011;15328;50.860;10.562;2023-05-15T21:44:15;5.47;;;4.35;;
27999;SDS011;15328;50.860;10.562;2023-05-15T21:49:16;4.75;;;3.90;;
27999;SDS011;15328;50.860;10.562;2023-05-15T21:54:17;5.72;;;4.25;;
27999;SDS011;15328;50.860;10.562;2023-05-15T21:59:17;4.40;;;4.00;;
27999;SDS011;15328;50.860;10.562;2023-05-15T22:04:17;4.80;;;4.07;;
27999;SDS011;15328;50.860;10.562;2023-05-15T22:09:18;4.93;;;3.87;;
27999;SDS011;15328;50.860;10.562;2023-05-15T22:14:18;6.47;;;4.03;;
27999;SDS011;15328;50.860;10.562;2023-05-15T22:19:18;4.43;;;4.03;;
27999;SDS011;15328;50.860;10.562;2023-05-15T22:24:19;4.85;;;3.85;;
27999;SDS011;15328;50.860;10.562;2023-05-15T22:29:20;4.60;;;4.10;;
27999;SDS011;15328;50.860;10.562;2023-05-15T22:34:20;5.03;;;4.30;;
27999;SDS011;15328;50.860;10.562;2023-05-15T22:39:21;6.57;;;4.17;;
27999;SDS011;15328;50.860;10.562;2023-05-15T22:44:21;5.43;;;4.57;;
27999;SDS011;15328;50.860;10.562;2023-05-15T22:49:21;5.97;;;4.72;;
27999;SDS011;15328;50.860;10.562;2023-05-15T22:54:25;4.95;;;4.32;;
27999;SDS011;15328;50.860;10.562;2023-05-15T22:59:25;5.57;;;4.72;;
27999;SDS011;15328;50.860;10.562;2023-05-15T23:04:26;4.90;;;4.38;;
27999;SDS011;15328;50.860;10.562;2023-05-15T23:09:26;7.10;;;5.50;;
27999;SDS011;15328;50.860;10.562;2023-05-15T23:14:26;5.93;;;4.73;;
27999;SDS011;15328;50.860;10.562;2023-05-15T23:19:27;5.77;;;4.63;;
27999;SDS011;15328;50.860;10.562;2023-05-15T23:24:27;5.63;;;4.77;;
27999;SDS011;15328;50.860;10.562;2023-05-15T23:29:27;6.90;;;5.20;;
27999;SDS011;15328;50.860;10.562;2023-05-15T23:34:28;6.03;;;4.97;;
27999;SDS011;15328;50.860;10.562;2023-05-15T23:39:28;5.90;;;5.00;;
27999;SDS011;15328;50.860;10.562;2023-05-15T23:44:29;5.32;;;4.82;;
27999;SDS011;15328;50.860;10.562;2023-05-15T23:49:29;6.07;;;4.97;;
27999;SDS011;15328;50.860;10.562;2023-05-15T23:54:31;6.53;;;5.07;;
27999;SDS011;15328;50.860;10.562;2023-05-15T23:59:32;5.80;;;5.17;;
